createdAt,value
2019-04-10T00:01:09.657Z,37.86
2019-04-10T00:03:43.656Z,37.89
2019-04-10T00:06:17.069Z,37.88
2019-04-10T00:08:47.026Z,37.92
2019-04-10T00:11:18.586Z,37.94
2019-04-10T00:13:49.846Z,37.96
2019-04-10T00:16:22.323Z,37.98
2019-04-10T00:18:53.999Z,37.98
2019-04-10T00:21:26.182Z,38.02
2019-04-10T00:23:57.686Z,38.05
2019-04-10T00:26:29.721Z,38.08
2019-04-10T00:29:01.017Z,38.13
2019-04-10T00:31:32.190Z,38.18
2019-04-10T00:34:03.439Z,38.19
2019-04-10T00:36:35.222Z,38.23
2019-04-10T00:39:08.635Z,38.28
2019-04-10T00:41:40.676Z,38.33
2019-04-10T00:44:11.827Z,38.37
2019-04-10T00:46:43.279Z,38.37
2019-04-10T00:49:15.361Z,38.40
2019-04-10T00:51:47.800Z,38.45
2019-04-10T00:54:20.005Z,38.50
2019-04-10T00:56:51.256Z,38.55
2019-04-10T00:59:22.446Z,38.63
2019-04-10T01:01:54.278Z,38.68
2019-04-10T01:04:26.636Z,38.71
2019-04-10T01:06:57.806Z,38.73
2019-04-10T01:09:29.182Z,38.79
2019-04-10T01:12:00.561Z,38.80
2019-04-10T01:14:31.863Z,38.86
2019-04-10T01:17:04.013Z,38.90
2019-04-10T01:19:36.281Z,38.94
2019-04-10T01:22:08.612Z,39.01
2019-04-10T01:24:41.744Z,38.99
2019-04-10T01:27:13.892Z,39.03
2019-04-10T01:29:46.041Z,39.08
2019-04-10T01:32:17.463Z,39.13
2019-04-10T01:34:49.633Z,39.14
2019-04-10T01:37:20.770Z,39.15
2019-04-10T01:39:52.801Z,39.17
2019-04-10T01:42:24.872Z,39.23
2019-04-10T01:44:56.045Z,39.29
2019-04-10T01:47:27.202Z,39.32
2019-04-10T01:49:58.498Z,39.35
2019-04-10T01:52:29.733Z,39.35
2019-04-10T01:55:03.168Z,39.46
2019-04-10T01:57:34.586Z,39.50
2019-04-10T02:00:06.800Z,39.56
2019-04-10T02:02:46.242Z,39.60
2019-04-10T02:05:18.604Z,39.64
2019-04-10T02:08:01.328Z,39.68
2019-04-10T02:10:23.776Z,39.74
2019-04-10T02:12:54.987Z,39.80
2019-04-10T02:15:26.234Z,39.83
2019-04-10T02:17:57.378Z,39.90
2019-04-10T02:20:29.156Z,39.94
2019-04-10T02:23:00.365Z,39.99
2019-04-10T02:25:32.624Z,40.08
2019-04-10T02:28:04.863Z,40.11
2019-04-10T02:30:37.291Z,40.13
2019-04-10T02:33:10.551Z,40.19
2019-04-10T02:35:43.452Z,40.24
2019-04-10T02:38:32.767Z,40.30
2019-04-10T02:40:47.732Z,40.36
2019-04-10T02:43:19.056Z,40.43
2019-04-10T02:45:51.149Z,40.48
2019-04-10T02:48:23.450Z,40.55
2019-04-10T02:50:55.515Z,40.61
2019-04-10T02:53:27.659Z,40.68
2019-04-10T02:56:00.442Z,40.73
2019-04-10T02:58:32.282Z,40.82
2019-04-10T03:01:03.675Z,40.91
2019-04-10T03:03:36.098Z,41.03
2019-04-10T03:06:09.127Z,41.11
2019-04-10T03:08:54.907Z,41.17
2019-04-10T03:11:14.523Z,41.27
2019-04-10T03:13:47.261Z,41.38
2019-04-10T03:16:19.441Z,41.38
2019-04-10T03:18:52.881Z,41.38
2019-04-10T03:21:25.038Z,41.48
2019-04-10T03:23:56.258Z,41.51
2019-04-10T03:26:27.913Z,41.50
2019-04-10T03:28:59.720Z,41.54
2019-04-10T03:31:32.469Z,41.57
2019-04-10T03:34:15.600Z,41.60
2019-04-10T03:36:45.528Z,41.66
2019-04-10T03:39:17.433Z,41.71
2019-04-10T03:41:48.648Z,41.74
2019-04-10T03:44:20.747Z,41.78
2019-04-10T03:46:52.802Z,41.84
2019-04-10T03:49:25.517Z,41.89
2019-04-10T03:51:56.792Z,41.90
2019-04-10T03:54:28.133Z,41.94
2019-04-10T03:57:00.394Z,41.94
2019-04-10T03:59:32.659Z,41.93
2019-04-10T04:02:03.910Z,41.96
2019-04-10T04:04:35.142Z,41.91
2019-04-10T04:07:07.076Z,42.03
2019-04-10T04:09:38.291Z,42.15
2019-04-10T04:12:10.477Z,42.19
2019-04-10T04:14:41.740Z,42.17
2019-04-10T04:17:13.610Z,42.17
2019-04-10T04:19:44.898Z,42.24
2019-04-10T04:22:16.710Z,42.28
2019-04-10T04:24:48.213Z,42.32
2019-04-10T04:27:20.031Z,42.26
2019-04-10T04:29:51.943Z,42.32
2019-04-10T04:32:23.812Z,42.35
2019-04-10T04:34:56.272Z,42.34
2019-04-10T04:37:28.046Z,42.42
2019-04-10T04:40:00.509Z,42.42
2019-04-10T04:42:32.920Z,42.46
2019-04-10T04:45:05.183Z,42.42
2019-04-10T04:47:36.332Z,42.46
2019-04-10T04:50:07.815Z,42.52
2019-04-10T04:52:39.166Z,42.52
2019-04-10T04:55:10.389Z,42.53
2019-04-10T04:57:42.292Z,42.55
2019-04-10T05:00:13.651Z,42.50
2019-04-10T05:02:44.843Z,42.60
2019-04-10T05:05:16.442Z,42.55
2019-04-10T05:07:58.411Z,42.62
2019-04-10T05:10:20.895Z,42.67
2019-04-10T05:12:52.113Z,42.73
2019-04-10T05:15:23.284Z,42.70
2019-04-10T05:17:55.557Z,42.66
2019-04-10T05:20:39.299Z,42.65
2019-04-10T05:22:59.990Z,42.62
2019-04-10T05:25:31.597Z,42.60
2019-04-10T05:28:03.632Z,42.63
2019-04-10T05:30:35.687Z,42.62
2019-04-10T05:33:06.964Z,42.57
2019-04-10T05:35:38.144Z,42.67
2019-04-10T05:38:10.207Z,42.69
2019-04-10T05:40:42.206Z,42.72
2019-04-10T05:43:13.534Z,42.80
2019-04-10T05:45:44.738Z,42.86
2019-04-10T05:48:15.984Z,42.87
2019-04-10T05:50:53.975Z,42.92
2019-04-10T05:53:20.429Z,42.88
2019-04-10T05:55:51.731Z,42.91
2019-04-10T05:58:23.765Z,42.94
2019-04-10T06:00:56.857Z,42.94
2019-04-10T06:03:28.277Z,43.00
2019-04-10T06:06:01.013Z,43.12
2019-04-10T06:08:33.322Z,43.15
2019-04-10T06:11:04.613Z,43.11
2019-04-10T06:13:36.853Z,43.00
2019-04-10T06:16:08.008Z,42.89
2019-04-10T06:18:39.593Z,42.71
2019-04-10T06:21:10.713Z,42.64
2019-04-10T06:23:42.042Z,42.51
2019-04-10T06:26:15.569Z,42.41
2019-04-10T06:28:46.497Z,42.28
2019-04-10T06:31:18.680Z,42.24
2019-04-10T06:33:50.586Z,42.21
2019-04-10T06:36:21.852Z,42.17
2019-04-10T06:38:53.147Z,42.23
2019-04-10T06:41:24.413Z,42.29
2019-04-10T06:43:55.705Z,42.22
2019-04-10T06:46:26.991Z,42.21
2019-04-10T06:48:58.475Z,42.21
2019-04-10T06:51:29.679Z,42.22
2019-04-10T06:54:06.999Z,42.33
2019-04-10T06:56:33.762Z,42.41
2019-04-10T06:59:05.072Z,42.40
2019-04-10T07:01:45.799Z,42.37
2019-04-10T07:04:09.952Z,42.31
2019-04-10T07:06:53.943Z,42.28
2019-04-10T07:09:21.438Z,42.24
2019-04-10T07:11:58.354Z,42.12
2019-04-10T07:14:28.721Z,42.04
2019-04-10T07:17:05.043Z,41.87
2019-04-10T07:19:33.103Z,41.84
2019-04-10T07:22:09.833Z,41.85
2019-04-10T07:24:41.185Z,41.84
2019-04-10T07:27:11.848Z,41.79
2019-04-10T07:29:43.094Z,41.79
2019-04-10T07:32:15.003Z,41.79
2019-04-10T07:34:46.729Z,41.72
2019-04-10T07:37:21.331Z,41.70
2019-04-10T07:39:50.971Z,41.72
2019-04-10T07:42:29.385Z,41.69
2019-04-10T07:44:56.486Z,41.69
2019-04-10T07:47:29.168Z,41.69
2019-04-10T07:50:02.118Z,41.62
2019-04-10T07:52:33.363Z,41.65
2019-04-10T07:55:06.449Z,41.64
2019-04-10T07:57:38.494Z,41.66
2019-04-10T08:00:11.739Z,41.61
2019-04-10T08:02:42.904Z,41.60
2019-04-10T08:05:14.449Z,41.59
2019-04-10T08:07:45.755Z,41.58
2019-04-10T08:10:17.904Z,41.57
2019-04-10T08:12:53.135Z,41.56
2019-04-10T08:15:23.452Z,41.53
2019-04-10T08:17:54.639Z,41.49
2019-04-10T08:20:26.175Z,41.52
2019-04-10T08:22:57.436Z,41.50
2019-04-10T08:25:29.663Z,41.47
2019-04-10T08:28:00.933Z,41.55
2019-04-10T08:30:34.183Z,41.48
2019-04-10T08:33:06.169Z,41.57
2019-04-10T08:35:37.870Z,41.54
2019-04-10T08:38:09.771Z,41.57
2019-04-10T08:40:42.235Z,41.53
2019-04-10T08:43:13.810Z,41.44
2019-04-10T08:45:50.041Z,41.42
2019-04-10T08:48:18.066Z,41.34
2019-04-10T08:50:50.383Z,41.29
2019-04-10T08:53:22.206Z,41.28
2019-04-10T08:55:54.549Z,41.26
2019-04-10T08:58:27.082Z,41.21
2019-04-10T09:01:00.676Z,41.15
2019-04-10T09:03:32.987Z,41.14
2019-04-10T09:06:05.200Z,41.01
2019-04-10T09:08:37.184Z,40.99
2019-04-10T09:11:09.111Z,41.02
2019-04-10T09:13:40.945Z,40.94
2019-04-10T09:16:12.338Z,40.88
2019-04-10T09:18:43.717Z,40.77
2019-04-10T09:21:15.340Z,40.69
2019-04-10T09:23:52.784Z,40.65
2019-04-10T09:26:20.432Z,40.49
2019-04-10T09:28:52.861Z,40.41
2019-04-10T09:31:24.179Z,40.36
2019-04-10T09:33:55.824Z,40.24
2019-04-10T09:36:27.160Z,40.13
2019-04-10T09:38:59.083Z,39.97
2019-04-10T09:41:32.012Z,39.92
2019-04-10T09:44:04.466Z,39.90
2019-04-10T09:46:35.841Z,39.75
2019-04-10T09:49:07.187Z,39.62
2019-04-10T09:51:38.457Z,39.54
2019-04-10T09:54:09.945Z,39.51
2019-04-10T09:56:41.963Z,39.40
2019-04-10T09:59:13.876Z,39.38
2019-04-10T10:01:46.412Z,39.24
2019-04-10T10:04:17.699Z,39.15
2019-04-10T10:06:49.365Z,39.09
2019-04-10T10:09:21.540Z,38.96
2019-04-10T10:11:53.458Z,38.77
2019-04-10T10:14:26.549Z,38.64
2019-04-10T10:16:58.086Z,38.55
2019-04-10T10:19:30.095Z,38.49
2019-04-10T10:22:03.579Z,38.46
2019-04-10T10:24:34.993Z,38.40
2019-04-10T10:27:07.310Z,38.42
2019-04-10T10:29:38.864Z,38.29
2019-04-10T10:32:10.953Z,38.14
2019-04-10T10:34:42.774Z,37.86
2019-04-10T10:37:15.202Z,37.65
2019-04-10T10:39:47.277Z,37.51
2019-04-10T10:42:19.303Z,37.42
2019-04-10T10:44:50.747Z,37.30
2019-04-10T10:47:22.272Z,37.15
2019-04-10T10:49:53.600Z,37.08
2019-04-10T10:52:25.737Z,37.00
2019-04-10T10:54:59.062Z,36.88
2019-04-10T10:57:31.139Z,36.79
2019-04-10T11:00:02.450Z,36.66
2019-04-10T11:02:33.844Z,36.58
2019-04-10T11:05:07.087Z,36.55
2019-04-10T11:07:38.872Z,36.52
2019-04-10T11:10:12.479Z,36.40
2019-04-10T11:12:44.176Z,36.27
2019-04-10T11:15:16.199Z,36.07
2019-04-10T11:17:47.502Z,35.88
2019-04-10T11:20:19.897Z,35.75
2019-04-10T11:22:51.349Z,35.58
2019-04-10T11:25:22.492Z,35.54
2019-04-10T11:27:54.051Z,35.46
2019-04-10T11:30:26.839Z,35.33
2019-04-10T11:32:58.311Z,35.19
2019-04-10T11:35:31.732Z,35.04
2019-04-10T11:38:05.660Z,34.97
2019-04-10T11:40:36.523Z,34.88
2019-04-10T11:43:08.002Z,34.81
2019-04-10T11:48:12.936Z,34.70
2019-04-10T11:50:46.170Z,34.60
2019-04-10T11:53:19.067Z,34.53
2019-04-10T11:55:53.627Z,34.47
2019-04-10T11:58:27.112Z,34.44
2019-04-10T12:00:59.473Z,34.38
2019-04-10T12:03:31.356Z,34.35
2019-04-10T12:06:04.433Z,34.24
2019-04-10T12:09:04.251Z,34.16
2019-04-10T12:11:14.563Z,34.18
2019-04-10T12:13:42.737Z,34.13
2019-04-10T12:16:14.805Z,33.96
2019-04-10T12:18:46.781Z,33.72
2019-04-10T12:21:18.114Z,33.60
2019-04-10T12:23:50.228Z,33.46
2019-04-10T12:26:21.717Z,33.32
2019-04-10T12:28:53.808Z,33.33
2019-04-10T12:31:26.009Z,33.28
2019-04-10T12:33:57.350Z,33.11
2019-04-10T12:36:28.871Z,32.78
2019-04-10T12:39:00.353Z,32.48
2019-04-10T12:41:33.268Z,32.09
2019-04-10T12:44:05.331Z,31.49
2019-04-10T12:46:37.341Z,30.96
2019-04-10T12:49:09.640Z,30.64
2019-04-10T12:51:41.557Z,30.55
2019-04-10T12:54:12.842Z,30.63
2019-04-10T12:56:43.993Z,30.75
2019-04-10T12:59:15.312Z,30.93
2019-04-10T13:01:47.042Z,31.03
2019-04-10T13:04:18.228Z,31.10
2019-04-10T13:06:52.348Z,31.15
2019-04-10T13:09:22.255Z,30.95
2019-04-10T13:11:53.408Z,30.65
2019-04-10T13:14:24.620Z,29.79
2019-04-10T13:16:56.422Z,28.41
2019-04-10T13:19:27.595Z,26.80
2019-04-10T13:21:59.896Z,24.88
2019-04-10T13:24:31.194Z,23.11
2019-04-10T13:27:02.380Z,21.48
2019-04-10T13:29:33.643Z,20.11
2019-04-10T13:32:04.936Z,19.25
2019-04-10T13:34:37.389Z,19.13
2019-04-10T13:37:08.548Z,19.27
2019-04-10T13:39:39.798Z,19.74
2019-04-10T13:42:10.966Z,20.39
2019-04-10T13:44:42.543Z,21.12
2019-04-10T13:47:13.793Z,21.82
2019-04-10T13:49:46.247Z,22.53
2019-04-10T13:52:18.285Z,23.13
2019-04-10T13:54:50.450Z,23.56
2019-04-10T13:57:22.257Z,23.68
2019-04-10T13:59:53.523Z,23.38
2019-04-10T14:02:32.519Z,22.16
2019-04-10T14:05:05.264Z,20.46
2019-04-10T14:07:37.600Z,19.13
2019-04-10T14:10:10.376Z,18.59
2019-04-10T14:12:43.012Z,18.52
2019-04-10T14:15:14.383Z,18.61
2019-04-10T14:17:45.961Z,18.59
2019-04-10T14:20:17.992Z,18.72
2019-04-10T14:22:55.711Z,19.06
2019-04-10T14:25:34.100Z,19.70
2019-04-10T14:28:05.261Z,20.18
2019-04-10T14:30:37.980Z,20.77
2019-04-10T14:33:09.233Z,21.25
2019-04-10T14:35:41.123Z,21.58
2019-04-10T14:38:12.837Z,21.74
2019-04-10T14:40:45.167Z,22.11
2019-04-10T14:43:16.758Z,22.59
2019-04-10T14:45:48.135Z,22.84
2019-04-10T14:48:20.266Z,22.77
2019-04-10T14:50:51.544Z,22.80
2019-04-10T14:53:22.814Z,22.58
2019-04-10T14:55:54.002Z,22.25
2019-04-10T14:58:28.946Z,21.90
2019-04-10T15:00:58.232Z,21.49
2019-04-10T15:03:29.369Z,21.15
2019-04-10T15:06:02.458Z,20.80
2019-04-10T15:08:33.771Z,20.52
2019-04-10T15:11:04.950Z,20.42
2019-04-10T15:13:36.231Z,20.76
2019-04-10T15:16:07.440Z,21.15
2019-04-10T15:18:39.188Z,21.53
2019-04-10T15:21:10.356Z,22.12
2019-04-10T15:23:42.595Z,22.64
2019-04-10T15:26:13.907Z,23.06
2019-04-10T15:28:45.990Z,23.40
2019-04-10T15:31:17.518Z,23.67
2019-04-10T15:33:49.644Z,23.87
2019-04-10T15:36:22.148Z,24.05
2019-04-10T15:38:54.621Z,24.19
2019-04-10T15:41:26.045Z,24.36
2019-04-10T15:43:59.414Z,24.55
2019-04-10T15:46:31.009Z,24.76
2019-04-10T15:49:03.685Z,24.91
2019-04-10T15:51:36.213Z,25.07
2019-04-10T15:54:07.890Z,25.25
2019-04-10T15:56:40.189Z,25.46
2019-04-10T15:59:12.182Z,25.66
2019-04-10T16:01:43.644Z,25.73
2019-04-10T16:04:17.125Z,25.83
2019-04-10T16:06:49.421Z,25.87
2019-04-10T16:09:21.278Z,25.88
2019-04-10T16:12:04.218Z,25.01
2019-04-10T16:14:35.895Z,23.36
2019-04-10T16:17:26.139Z,21.78
2019-04-10T16:20:15.511Z,21.30
2019-04-10T16:23:03.786Z,21.70
2019-04-10T16:25:36.227Z,22.47
2019-04-10T16:28:08.739Z,23.04
2019-04-10T16:30:41.049Z,23.49
2019-04-10T16:33:12.567Z,23.64
2019-04-10T16:35:44.170Z,23.08
2019-04-10T16:38:16.365Z,22.59
2019-04-10T16:40:47.963Z,22.58
2019-04-10T16:43:20.207Z,22.91
2019-04-10T16:45:53.006Z,23.31
2019-04-10T16:48:25.165Z,23.75
2019-04-10T16:50:58.095Z,24.11
2019-04-10T16:53:29.934Z,24.34
2019-04-10T16:56:01.255Z,24.40
2019-04-10T16:58:32.453Z,24.41
2019-04-10T17:01:04.362Z,24.35
2019-04-10T17:03:35.956Z,24.24
2019-04-10T17:06:08.229Z,24.27
2019-04-10T17:08:40.457Z,24.37
2019-04-10T17:11:12.627Z,24.52
2019-04-10T17:13:43.871Z,24.78
2019-04-10T17:16:15.661Z,25.11
2019-04-10T17:18:47.570Z,25.48
2019-04-10T17:21:19.896Z,25.89
2019-04-10T17:23:51.192Z,26.27
2019-04-10T17:26:22.629Z,26.62
2019-04-10T17:28:53.720Z,26.91
2019-04-10T17:31:24.861Z,27.20
2019-04-10T17:33:56.826Z,27.45
2019-04-10T17:36:30.054Z,27.69
2019-04-10T17:39:01.277Z,27.92
2019-04-10T17:41:35.401Z,28.13
2019-04-10T17:44:07.754Z,28.31
2019-04-10T17:46:39.520Z,28.53
2019-04-10T17:49:11.940Z,28.69
2019-04-10T17:51:44.361Z,28.84
2019-04-10T17:54:15.699Z,28.97
2019-04-10T17:56:46.935Z,29.09
2019-04-10T17:59:18.407Z,29.22
2019-04-10T18:01:49.725Z,29.39
2019-04-10T18:04:22.065Z,29.57
2019-04-10T18:06:53.385Z,29.70
2019-04-10T18:09:24.858Z,29.81
2019-04-10T18:11:57.164Z,29.88
2019-04-10T18:14:29.129Z,29.98
2019-04-10T18:17:02.430Z,30.07
2019-04-10T18:19:34.375Z,30.14
2019-04-10T18:22:06.694Z,30.26
2019-04-10T18:24:40.072Z,30.38
2019-04-10T18:27:12.271Z,30.48
2019-04-10T18:29:43.682Z,30.53
2019-04-10T18:32:16.009Z,30.63
2019-04-10T18:34:47.354Z,30.72
2019-04-10T18:37:22.041Z,30.75
2019-04-10T18:39:51.578Z,30.83
2019-04-10T18:42:24.239Z,30.93
2019-04-10T18:44:55.606Z,30.98
2019-04-10T18:47:27.117Z,30.99
2019-04-10T18:49:58.325Z,31.01
2019-04-10T18:52:29.635Z,31.06
2019-04-10T18:55:00.804Z,31.04
2019-04-10T18:57:33.815Z,31.06
2019-04-10T19:00:24.058Z,31.08
2019-04-10T19:03:05.476Z,31.11
2019-04-10T19:05:38.851Z,31.16
2019-04-10T19:08:12.792Z,31.23
2019-04-10T19:10:43.381Z,31.27
2019-04-10T19:13:18.914Z,31.34
2019-04-10T19:15:51.654Z,31.38
2019-04-10T19:18:25.832Z,31.44
2019-04-10T19:20:59.035Z,31.42
2019-04-10T19:23:30.861Z,31.48
2019-04-10T19:26:05.511Z,31.55
2019-04-10T19:28:40.725Z,31.59
2019-04-10T19:31:18.103Z,31.70
2019-04-10T19:33:47.453Z,31.80
2019-04-10T19:36:19.471Z,31.87
2019-04-10T19:38:51.764Z,31.95
2019-04-10T19:41:29.604Z,31.97
2019-04-10T19:43:56.872Z,32.02
2019-04-10T19:46:29.322Z,32.10
2019-04-10T19:49:00.697Z,32.19
2019-04-10T19:51:32.262Z,32.29
2019-04-10T19:54:05.696Z,32.36
2019-04-10T19:56:37.004Z,32.42
2019-04-10T19:59:08.468Z,32.50
2019-04-10T20:01:39.603Z,32.54
2019-04-10T20:04:10.951Z,32.59
2019-04-10T20:06:42.711Z,32.66
2019-04-10T20:09:15.063Z,32.66
2019-04-10T20:11:52.415Z,32.68
2019-04-10T20:14:20.036Z,32.68
2019-04-10T20:16:51.339Z,32.69
2019-04-10T20:19:22.610Z,32.74
2019-04-10T20:21:54.531Z,32.79
2019-04-10T20:24:27.140Z,32.74
2019-04-10T20:26:59.410Z,32.82
2019-04-10T20:29:30.933Z,32.88
2019-04-10T20:32:02.155Z,32.93
2019-04-10T20:34:33.705Z,32.96
2019-04-10T20:37:08.426Z,32.98
2019-04-10T20:39:39.126Z,33.04
2019-04-10T20:42:10.538Z,33.07
2019-04-10T20:44:42.962Z,33.13
2019-04-10T20:47:15.684Z,33.16
2019-04-10T20:49:47.913Z,33.19
2019-04-10T20:52:20.017Z,33.20
2019-04-10T20:54:51.254Z,33.24
2019-04-10T20:57:23.571Z,33.30
2019-04-10T20:59:55.308Z,33.32
2019-04-10T21:02:26.586Z,33.44
2019-04-10T21:05:04.968Z,33.49
2019-04-10T21:07:31.814Z,33.49
2019-04-10T21:10:04.354Z,33.52
2019-04-10T21:12:36.407Z,33.50
2019-04-10T21:15:09.115Z,33.50
2019-04-10T21:17:40.381Z,33.52
2019-04-10T21:20:13.513Z,33.51
2019-04-10T21:22:45.137Z,33.50
2019-04-10T21:25:17.048Z,33.51
2019-04-10T21:27:50.399Z,33.55
2019-04-10T21:30:44.418Z,33.56
2019-04-10T21:33:40.593Z,33.60
2019-04-10T21:36:11.975Z,33.58
2019-04-10T21:38:43.304Z,33.63
2019-04-10T21:41:15.628Z,33.66
2019-04-10T21:43:47.511Z,33.69
2019-04-10T21:46:19.727Z,33.68
2019-04-10T21:48:51.188Z,33.64
2019-04-10T21:51:23.231Z,33.67
2019-04-10T21:53:54.547Z,33.68
2019-04-10T21:56:26.636Z,33.67
2019-04-10T21:58:59.035Z,33.69
2019-04-10T22:01:30.486Z,33.79
2019-04-10T22:04:03.895Z,33.84
2019-04-10T22:06:45.520Z,33.89
2019-04-10T22:09:34.916Z,34.02
2019-04-10T22:12:26.908Z,34.11
2019-04-10T22:14:52.594Z,34.09
2019-04-10T22:17:24.724Z,34.11
2019-04-10T22:19:55.977Z,34.06
2019-04-10T22:22:27.253Z,34.08
2019-04-10T22:24:59.157Z,34.13
2019-04-10T22:27:31.632Z,34.19
2019-04-10T22:30:03.051Z,34.24
2019-04-10T22:32:35.830Z,34.31
2019-04-10T22:35:07.433Z,34.40
2019-04-10T22:37:39.906Z,34.45
2019-04-10T22:40:11.248Z,34.48
2019-04-10T22:42:46.226Z,34.46
2019-04-10T22:45:33.622Z,34.46
2019-04-10T22:48:06.170Z,34.46
2019-04-10T22:50:38.556Z,34.44
2019-04-10T22:53:09.790Z,34.44
2019-04-10T22:55:42.310Z,34.45
2019-04-10T22:58:13.486Z,34.43
2019-04-10T23:00:45.971Z,34.44
2019-04-10T23:03:18.106Z,34.41
2019-04-10T23:05:49.353Z,34.41
2019-04-10T23:08:20.504Z,34.41
2019-04-10T23:10:51.838Z,34.50
2019-04-10T23:13:23.925Z,34.52
2019-04-10T23:15:55.667Z,34.63
2019-04-10T23:18:27.589Z,34.68
2019-04-10T23:20:58.869Z,34.70
2019-04-10T23:23:30.769Z,34.79
2019-04-10T23:26:02.025Z,34.80
2019-04-10T23:28:34.295Z,34.82
2019-04-10T23:31:05.700Z,34.85
2019-04-10T23:33:37.016Z,34.79
2019-04-10T23:36:08.240Z,34.75
2019-04-10T23:38:39.657Z,34.71
2019-04-10T23:41:11.580Z,34.78
2019-04-10T23:43:44.040Z,34.86
2019-04-10T23:46:15.197Z,34.93
2019-04-10T23:48:46.776Z,34.97
2019-04-10T23:51:18.977Z,35.02
2019-04-10T23:53:50.964Z,35.09
2019-04-10T23:56:22.171Z,35.21
2019-04-10T23:58:54.133Z,35.26
